Data for 02/21/2014

Time Sea-Level Adjusted Pressure Absolute Pressure Temperature Relative Humidity Dew Point   
(mb) (inHg) (mb) (inHg) (C) (F) (%) (C) (F)
00:05 1012 29.88 841 24.83 -2.2 28 70 -6.9 19.5
00:10 1012 29.88 841 24.83 -2.3 27.8 70 -7 19.4
00:15 1012 29.88 841 24.83 -2.4 27.7 70 -7.1 19.2
00:20 1012 29.88 841 24.83 -2.4 27.7 70 -7.1 19.2
00:25 1012 29.88 841 24.83 -2.4 27.7 70 -7.1 19.2
00:30 1012 29.88 841 24.83 -2.4 27.6 71 -6.9 19.5
00:35 1012 29.88 841 24.83 -2.6 27.4 72 -6.9 19.6
00:40 1012 29.88 841 24.83 -2.7 27.2 73 -6.8 19.7
00:45 1012 29.88 841 24.83 -2.8 26.9 73 -7.1 19.3
00:50 1012 29.88 841 24.83 -2.8 27 70 -7.5 18.6
00:55 1012 29.88 841 24.83 -2.7 27.2 68 -7.9 17.8
01:00 1012 29.88 841 24.83 -2.6 27.4 65 -8.2 17.2
01:05 1012 29.88 841 24.83 -2.5 27.5 64 -8.3 17
01:10 1012 29.88 841 24.83 -2.5 27.5 64 -8.3 17
01:15 1012 29.88 841 24.83 -2.7 27.2 64 -8.5 16.7
01:20 1012 29.88 841 24.83 -2.7 27.1 64 -8.7 16.3
01:25 1012 29.88 841 24.83 -2.6 27.2 63 -8.7 16.4
01:30 1012 29.88 841 24.83 -2.5 27.5 62 -8.8 16.2
01:35 1012 29.88 841 24.83 -2.4 27.7 62 -8.7 16.3
01:40 1012 29.88 841 24.83 -2.2 28 62 -8.5 16.6
01:45 1012 29.88 841 24.83 -2.5 27.5 70 -7.2 19
01:50 1012 29.88 841 24.83 -3.3 26.1 73 -7.5 18.6
01:55 1012 29.88 841 24.83 -3.3 26 72 -7.7 18.2
02:00 1012 29.88 841 24.83 -3.3 26 69 -8.2 17.2
02:05 1012 29.88 841 24.83 -3.2 26.3 69 -8.1 17.4
02:10 1012 29.88 841 24.83 -3.1 26.5 68 -8.1 17.4
02:15 1012 29.88 841 24.83 -3 26.6 68 -8.1 17.4
02:20 1012 29.88 841 24.83 -2.9 26.7 67 -8.3 17.1
02:25 1012 29.88 841 24.83 -2.9 26.9 67 -8.2 17.3
02:30 1012 29.88 841 24.83 -2.9 26.8 66 -8.3 17.1
02:35 1012 29.88 841 24.83 -2.8 26.9 66 -8.4 16.9
02:40 1012 29.88 841 24.83 -2.8 27 65 -8.4 16.9
02:45 1012 29.88 841 24.83 -2.8 27 66 -8.3 17
02:50 1012 29.88 841 24.83 -2.8 26.9 66 -8.4 16.9
02:55 1012 29.88 841 24.83 -2.8 26.9 65 -8.5 16.7
03:00 1012 29.88 841 24.83 -2.8 26.9 66 -8.4 16.9
03:05 1012 29.88 841 24.83 -2.9 26.8 66 -8.4 17
03:10 1012 29.88 841 24.83 -2.9 26.8 66 -8.3 17
03:15 1012 29.88 841 24.83 -3 26.7 66 -8.4 16.8
03:20 1012 29.88 841 24.83 -3 26.5 66 -8.6 16.5
03:25 1012 29.88 841 24.83 -3.1 26.4 65 -8.7 16.3
03:30 1012 29.88 841 24.83 -3.1 26.4 66 -8.7 16.4
03:35 1012 29.88 841 24.83 -3 26.5 64 -9 15.8
03:40 1012 29.88 841 24.83 -3 26.6 63 -9 15.8
03:45 1012 29.88 841 24.83 -3 26.7 63 -9.1 15.7
03:50 1012 29.88 841 24.83 -2.9 26.8 58 -10 14
03:55 1012 29.88 841 24.83 -2.7 27.1 60 -9.4 15
04:00 1012 29.88 841 24.83 -2.8 27 58 -9.8 14.3
04:05 1012 29.88 841 24.83 -2.7 27.1 59 -9.7 14.6
04:10 1012 29.88 841 24.83 -2.6 27.2 58 -9.9 14.2
04:15 1012 29.88 841 24.83 -2.5 27.5 57 -9.9 14.2
04:20 1012 29.88 841 24.83 -2.4 27.7 61 -9 15.8
04:25 1012 29.88 841 24.83 -2.5 27.6 64 -8.4 16.9
04:30 1012 29.88 842 24.86 -2.7 27.2 66 -8.2 17.2
04:35 1012 29.88 841 24.83 -2.8 27 68 -7.9 17.8
04:40 1012 29.88 841 24.83 -2.9 26.8 70 -7.7 18.1
04:45 1012 29.88 841 24.83 -3 26.7 70 -7.7 18.1
04:50 1012 29.88 841 24.83 -3 26.6 69 -7.9 17.7
04:55 1012 29.88 841 24.83 -2.9 26.8 67 -8.2 17.2
05:00 1012 29.88 841 24.83 -2.6 27.3 64 -8.5 16.8
05:05 1012 29.88 841 24.83 -2.5 27.5 64 -8.3 17
05:10 1012 29.88 841 24.83 -2.6 27.4 65 -8.2 17.2
05:15 1012 29.88 841 24.83 -2.6 27.4 66 -8.1 17.5
05:20 1012 29.88 841 24.83 -2.7 27.2 67 -7.9 17.7
05:25 1012 29.88 841 24.83 -2.8 27 68 -7.8 17.9
05:30 1012 29.88 841 24.83 -3 26.7 70 -7.7 18.1
05:35 1012 29.88 841 24.83 -3.4 25.9 72 -7.7 18.1
05:40 1012 29.88 841 24.83 -3.6 25.5 74 -7.6 18.3
05:45 1012 29.88 841 24.83 -3.8 25.2 76 -7.4 18.7
05:50 1012 29.88 841 24.83 -3.9 25 78 -7.2 19.1
05:55 1012 29.88 841 24.83 -3.9 24.9 78 -7.3 18.9
06:00 1012 29.88 841 24.83 -4.1 24.7 78 -7.4 18.8
06:05 1012 29.88 841 24.83 -4.1 24.5 79 -7.3 18.8
06:10 1012 29.88 841 24.83 -4.2 24.4 79 -7.3 18.9
06:15 1012 29.88 841 24.83 -4.3 24.3 79 -7.3 18.8
06:20 1012 29.88 841 24.83 -4.2 24.4 80 -7.3 18.9
06:25 1012 29.88 841 24.83 -4.2 24.5 79 -7.4 18.8
06:30 1012 29.88 841 24.83 -4.1 24.5 79 -7.3 18.9
06:35 1012 29.88 841 24.83 -4.1 24.7 79 -7.2 19
06:40 1011 29.85 841 24.83 -4.1 24.6 78 -7.4 18.8
06:45 1011 29.85 840 24.81 -4.1 24.6 78 -7.4 18.7
06:50 1011 29.85 840 24.81 -4.2 24.5 78 -7.5 18.6
06:55 1011 29.85 840 24.81 -4.1 24.6 78 -7.3 18.8
07:00 1011 29.85 840 24.81 -4.2 24.4 79 -7.3 18.8
07:05 1011 29.85 840 24.81 -4.3 24.3 79 -7.5 18.6
07:10 1011 29.85 840 24.81 -4 24.7 77 -7.4 18.6
07:15 1011 29.85 840 24.81 -4 24.9 73 -8.1 17.4
07:20 1011 29.85 840 24.81 -3.8 25.2 74 -7.7 18.1
07:25 1011 29.85 840 24.81 -3.7 25.4 74 -7.6 18.2
07:30 1011 29.85 840 24.81 -3.7 25.4 75 -7.5 18.4
07:35 1011 29.85 840 24.81 -3.7 25.3 74 -7.7 18.1
07:40 1011 29.85 840 24.81 -3.7 25.4 73 -7.8 18
07:45 1011 29.85 840 24.81 -3.6 25.5 72 -7.9 17.7
07:50 1011 29.85 840 24.81 -3.6 25.5 72 -7.9 17.7
07:55 1011 29.85 840 24.81 -3.5 25.6 71 -8.2 17.3
08:00 1011 29.85 840 24.81 -3.3 26 68 -8.3 17
08:05 1011 29.85 840 24.81 -3.3 26.1 69 -8.2 17.3
08:10 1011 29.85 840 24.81 -3.3 26.1 69 -8.3 17.1
08:15 1011 29.85 840 24.81 -3.3 26.1 68 -8.4 16.9
08:20 1011 29.85 840 24.81 -3.2 26.2 68 -8.3 17
08:25 1011 29.85 840 24.81 -3.3 26.1 69 -8.2 17.2
08:30 1011 29.85 840 24.81 -3.2 26.2 67 -8.5 16.6
08:35 1011 29.85 840 24.81 -3.1 26.5 67 -8.4 16.8
08:40 1011 29.85 840 24.81 -3 26.6 67 -8.3 17
08:45 1011 29.85 840 24.81 -3 26.7 66 -8.4 16.8
08:50 1011 29.85 840 24.81 -2.9 26.7 66 -8.4 17
08:55 1011 29.85 840 24.81 -2.9 26.7 67 -8.3 17.1
09:00 1011 29.85 840 24.81 -2.8 26.9 65 -8.5 16.8
09:05 1011 29.85 840 24.81 -2.8 27 65 -8.5 16.7
09:10 1011 29.85 840 24.81 -2.6 27.4 56 -10.1 13.8
09:15 1011 29.85 840 24.81 -1.6 29.1 52 -10.2 13.6
09:20 1011 29.85 840 24.81 -1.3 29.7 53 -9.6 14.8
09:25 1011 29.85 840 24.81 -1.2 29.8 52 -9.8 14.4
09:30 1011 29.85 840 24.81 -1.2 29.8 54 -9.3 15.2
09:35 1011 29.85 840 24.81 -1.3 29.7 52 -10 14.1
09:40 1011 29.85 840 24.81 -1.2 29.9 52 -9.8 14.3
09:45 1011 29.85 840 24.81 -1.1 30 52 -9.8 14.3
09:50 1011 29.85 840 24.81 -1.1 30 51 -10.1 13.9
09:55 1011 29.85 840 24.81 -1.1 30 51 -10.1 13.8
10:00 1011 29.85 840 24.81 -1.1 29.9 52 -9.9 14.2
10:05 1011 29.85 840 24.81 -1.2 29.8 54 -9.4 15.1
10:10 1011 29.85 840 24.81 -1.4 29.4 56 -9.1 15.7
10:15 1011 29.85 841 24.83 -1.6 29.1 58 -8.9 15.9
10:20 1011 29.85 841 24.83 -1.7 29 59 -8.8 16.2
10:25 1011 29.85 841 24.83 -1.7 28.9 59 -8.6 16.5
10:30 1011 29.85 841 24.83 -1.7 28.9 60 -8.6 16.5
10:35 1011 29.85 841 24.83 -1.8 28.8 60 -8.5 16.7
10:40 1011 29.85 841 24.83 -1.6 29 59 -8.5 16.6
10:45 1012 29.88 841 24.83 -1.7 29 62 -7.9 17.7
10:50 1012 29.88 841 24.83 -1.9 28.7 70 -6.6 20.1
10:55 1012 29.88 841 24.83 -3 26.5 83 -5.6 22
11:00 1012 29.88 841 24.83 -3.9 25 82 -6.6 20.1
11:05 1012 29.88 842 24.86 -4.1 24.7 82 -6.7 19.9
11:10 1013 29.91 842 24.86 -4.2 24.5 83 -6.7 19.9
11:15 1013 29.91 842 24.86 -4.3 24.3 83 -6.7 19.9
11:20 1013 29.91 842 24.86 -4.3 24.3 85 -6.4 20.5
11:25 1013 29.91 842 24.86 -4.6 23.8 85 -6.7 19.9
11:30 1013 29.91 842 24.86 -4.6 23.7 83 -7.1 19.2
11:35 1013 29.91 842 24.86 -4.6 23.7 86 -6.6 20.2
11:40 1013 29.91 842 24.86 -4.7 23.5 88 -6.4 20.5
11:45 1013 29.91 842 24.86 -4.6 23.6 87 -6.5 20.2
11:50 1013 29.91 842 24.86 -4.5 23.9 84 -6.8 19.8
11:55 1013 29.91 842 24.86 -4.3 24.2 82 -7 19.4
12:00 1013 29.91 842 24.86 -3.4 25.9 76 -7 19.5
12:05 1013 29.91 842 24.86 -2.7 27.1 76 -6.4 20.4
12:10 1013 29.91 842 24.86 -2.7 27.2 72 -7 19.5
12:15 1013 29.91 842 24.86 -2.6 27.4 57 -10 14.1
12:20 1013 29.91 842 24.86 -2.3 27.8 55 -10.1 13.7
12:25 1013 29.91 842 24.86 -2.2 28 54 -10.2 13.6
12:30 1013 29.91 842 24.86 -2 28.3 54 -10.2 13.6
12:35 1013 29.91 842 24.86 -2.1 28.2 55 -9.9 14.2
12:40 1013 29.91 842 24.86 -2.1 28.3 55 -9.9 14.2
12:45 1013 29.91 842 24.86 -2 28.4 54 -10.1 13.8
12:50 1013 29.91 842 24.86 -2 28.5 55 -9.9 14.2
12:55 1013 29.91 842 24.86 -1.9 28.5 53 -10.2 13.6
13:00 1013 29.91 842 24.86 -1.9 28.7 53 -10.2 13.6
13:05 1013 29.91 842 24.86 -1.8 28.8 50 -10.9 12.4
13:10 1013 29.91 842 24.86 -1.8 28.8 50 -10.8 12.6
13:15 1013 29.91 842 24.86 -1.7 28.9 49 -11.2 11.9
13:20 1013 29.91 842 24.86 -1.8 28.8 48 -11.3 11.6
13:25 1013 29.91 842 24.86 -1.7 28.9 48 -11.5 11.3
13:30 1013 29.91 842 24.86 -1.8 28.8 48 -11.3 11.6
13:35 1013 29.91 842 24.86 -1.8 28.7 49 -11.3 11.6
13:40 1013 29.91 842 24.86 -1.7 28.9 52 -10.4 13.3
13:45 1013 29.91 842 24.86 -2.1 28.3 54 -10.3 13.5
13:50 1013 29.91 842 24.86 -2.1 28.1 54 -10.3 13.5
13:55 1013 29.91 842 24.86 -2 28.4 56 -9.6 14.8
14:00 1013 29.91 842 24.86 -2.4 27.7 62 -8.7 16.3
14:05 1013 29.91 842 24.86 -2.5 27.4 62 -8.9 15.9
14:10 1013 29.91 842 24.86 -2.7 27.1 63 -8.8 16.1
14:15 1013 29.91 842 24.86 -2.7 27.1 66 -8.3 17
14:20 1013 29.91 842 24.86 -2.8 27 66 -8.3 17.1
14:25 1013 29.91 842 24.86 -3 26.6 67 -8.2 17.3
14:30 1013 29.91 842 24.86 -2.8 26.9 67 -8.2 17.2
14:35 1013 29.91 842 24.86 -2.6 27.3 66 -8.2 17.3
14:40 1013 29.91 842 24.86 -2.6 27.3 65 -8.2 17.2
14:45 1013 29.91 842 24.86 -2.3 27.8 63 -8.5 16.7
14:50 1013 29.91 842 24.86 -2.1 28.2 60 -8.9 16
14:55 1012 29.88 842 24.86 -2 28.3 60 -8.8 16.1
15:00 1013 29.91 842 24.86 -2 28.3 58 -9.3 15.3
15:05 1013 29.91 842 24.86 -2 28.5 55 -9.9 14.1
15:10 1013 29.91 842 24.86 -2 28.5 52 -10.7 12.8
15:15 1012 29.88 842 24.86 -2 28.4 52 -10.7 12.7
15:20 1012 29.88 842 24.86 -1.8 28.7 52 -10.5 13
15:25 1012 29.88 842 24.86 -1.8 28.7 51 -10.8 12.6
15:30 1012 29.88 842 24.86 -2.1 28.2 57 -9.6 14.7
15:35 1012 29.88 842 24.86 -2.2 28 62 -8.6 16.6
15:40 1012 29.88 842 24.86 -2.1 28.3 64 -7.9 17.7
15:45 1012 29.88 842 24.86 -2.4 27.7 65 -8 17.6
15:50 1012 29.88 842 24.86 -2.5 27.5 65 -8.1 17.4
15:55 1012 29.88 841 24.83 -2.4 27.7 68 -7.5 18.6
16:00 1012 29.88 841 24.83 -2.5 27.5 68 -7.6 18.3
16:05 1012 29.88 841 24.83 -2.6 27.4 69 -7.5 18.6
16:10 1012 29.88 841 24.83 -3.1 26.4 76 -6.8 19.8
16:15 1012 29.88 841 24.83 -3.7 25.4 77 -7.1 19.3
16:20 1012 29.88 842 24.86 -3.5 25.8 75 -7.3 18.9
16:25 1012 29.88 842 24.86 -3.4 25.9 78 -6.7 19.9
16:30 1012 29.88 841 24.83 -3.7 25.4 84 -6 21.2
16:35 1012 29.88 841 24.83 -4 24.9 87 -5.9 21.5
16:40 1012 29.88 841 24.83 -4.1 24.6 86 -6 21.1
16:45 1012 29.88 841 24.83 -4.2 24.5 87 -6.1 21.1
16:50 1012 29.88 841 24.83 -4.2 24.4 87 -6.2 20.9
16:55 1012 29.88 841 24.83 -4.2 24.4 86 -6.3 20.6
17:00 1012 29.88 841 24.83 -4.3 24.3 85 -6.4 20.4
17:05 1012 29.88 841 24.83 -4.2 24.4 85 -6.4 20.5
17:10 1012 29.88 841 24.83 -4.2 24.5 84 -6.4 20.4
17:15 1012 29.88 841 24.83 -4.1 24.7 82 -6.7 19.9
17:20 1012 29.88 841 24.83 -3.8 25.1 81 -6.6 20.1
17:25 1012 29.88 841 24.83 -3.7 25.3 79 -6.8 19.7
17:30 1012 29.88 841 24.83 -3.8 25.2 79 -6.9 19.6
17:35 1012 29.88 841 24.83 -3.5 25.7 78 -6.8 19.8
17:40 1012 29.88 841 24.83 -3.4 25.9 77 -6.9 19.6
17:45 1012 29.88 841 24.83 -3.2 26.2 76 -6.9 19.6
17:50 1012 29.88 841 24.83 -3.1 26.5 74 -7 19.4
17:55 1012 29.88 841 24.83 -3 26.5 75 -6.9 19.6
18:00 1012 29.88 841 24.83 -3 26.5 75 -6.9 19.6
18:05 1012 29.88 841 24.83 -3 26.5 73 -7.2 19
18:10 1012 29.88 841 24.83 -3.1 26.5 74 -7.1 19.2
18:15 1012 29.88 841 24.83 -3 26.6 74 -7 19.4
18:20 1012 29.88 841 24.83 -3 26.5 73 -7.2 19
18:25 1012 29.88 841 24.83 -3.1 26.4 73 -7.2 19
18:30 1012 29.88 841 24.83 -3.2 26.2 76 -6.9 19.5
18:35 1012 29.88 841 24.83 -3.3 26.1 75 -7.1 19.3
18:40 1012 29.88 841 24.83 -3.3 26 75 -7.2 19.1
18:45 1012 29.88 841 24.83 -3.2 26.3 73 -7.3 18.8
18:50 1012 29.88 841 24.83 -3.1 26.4 72 -7.4 18.7
18:55 1012 29.88 841 24.83 -3.1 26.5 72 -7.4 18.6
19:00 1012 29.88 841 24.83 -3.1 26.4 73 -7.3 18.8
19:05 1012 29.88 841 24.83 -3 26.5 73 -7.2 19.1
19:10 1012 29.88 841 24.83 -3 26.5 73 -7.2 19.1
19:15 1012 29.88 841 24.83 -3.1 26.5 73 -7.2 19.1
19:20 1012 29.88 841 24.83 -3.1 26.4 74 -7 19.3
19:25 1012 29.88 841 24.83 -3.1 26.4 79 -6.3 20.7
19:30 1012 29.88 841 24.83 -3.5 25.7 85 -5.7 21.8
19:35 1012 29.88 842 24.86 -4.5 23.8 88 -6.2 20.9
19:40 1012 29.88 842 24.86 -5.2 22.7 90 -6.6 20.2
19:45 1013 29.91 842 24.86 -5.3 22.5 91 -6.6 20.2
19:50 1013 29.91 842 24.86 -5.3 22.5 91 -6.5 20.3
19:55 1013 29.91 842 24.86 -5.3 22.4 91 -6.5 20.3
20:00 1013 29.91 842 24.86 -5.5 22.1 92 -6.6 20.1
20:05 1013 29.91 842 24.86 -5.4 22.2 91 -6.6 20.1
20:10 1013 29.91 842 24.86 -5.4 22.3 91 -6.7 20
20:15 1013 29.91 842 24.86 -5.3 22.4 91 -6.6 20.2
20:20 1013 29.91 842 24.86 -5.4 22.4 89 -6.9 19.6
20:25 1013 29.91 842 24.86 -5.3 22.4 88 -7 19.4
20:30 1013 29.91 842 24.86 -5.3 22.5 85 -7.5 18.6
20:35 1013 29.91 842 24.86 -5.2 22.6 82 -7.8 17.9
20:40 1013 29.91 842 24.86 -5.1 22.8 80 -8 17.6
20:45 1013 29.91 842 24.86 -5.1 22.8 81 -7.9 17.8
20:50 1013 29.91 842 24.86 -5.2 22.6 82 -7.8 17.9
20:55 1013 29.91 843 24.89 -5.2 22.6 82 -7.8 18
21:00 1013 29.91 842 24.86 -5.2 22.6 82 -7.8 18
21:05 1013 29.91 842 24.86 -5.3 22.5 82 -7.9 17.8
21:10 1013 29.91 842 24.86 -5.3 22.6 82 -7.8 18
21:15 1013 29.91 843 24.89 -5.2 22.7 82 -7.8 17.9
21:20 1013 29.91 843 24.89 -5.2 22.7 82 -7.8 18
21:25 1013 29.91 843 24.89 -5.2 22.6 83 -7.7 18.1
21:30 1013 29.91 842 24.86 -5.3 22.4 84 -7.6 18.3
21:35 1013 29.91 843 24.89 -5.6 22 87 -7.4 18.6
21:40 1013 29.91 843 24.89 -5.6 21.9 88 -7.3 18.9
21:45 1013 29.91 843 24.89 -5.9 21.3 90 -7.4 18.7
21:50 1013 29.91 843 24.89 -6.1 21.1 90 -7.4 18.6
21:55 1014 29.94 843 24.89 -5.9 21.4 90 -7.3 18.9
22:00 1014 29.94 843 24.89 -5.8 21.6 90 -7.2 19.1
22:05 1014 29.94 843 24.89 -5.7 21.7 91 -7 19.4
22:10 1014 29.94 843 24.89 -5.6 21.8 91 -7 19.5
22:15 1014 29.94 843 24.89 -5.7 21.8 90 -7 19.4
22:20 1014 29.94 843 24.89 -5.7 21.8 91 -7 19.4
22:25 1014 29.94 843 24.89 -5.6 21.9 91 -6.9 19.6
22:30 1014 29.94 843 24.89 -5.6 21.9 91 -6.9 19.6
22:35 1014 29.94 843 24.89 -5.7 21.8 90 -7 19.4
22:40 1014 29.94 843 24.89 -5.7 21.8 90 -7.1 19.3
22:45 1014 29.94 843 24.89 -5.6 21.8 87 -7.4 18.6
22:50 1014 29.94 843 24.89 -5.7 21.8 88 -7.4 18.7
22:55 1014 29.94 843 24.89 -5.7 21.8 88 -7.3 18.8
23:00 1014 29.94 843 24.89 -5.7 21.7 89 -7.3 18.9
23:05 1014 29.94 843 24.89 -5.8 21.6 86 -7.7 18.1
23:10 1014 29.94 843 24.89 -5.8 21.6 87 -7.6 18.3
23:15 1014 29.94 843 24.89 -5.8 21.5 88 -7.5 18.4
23:20 1014 29.94 843 24.89 -5.9 21.4 88 -7.6 18.3
23:25 1014 29.94 843 24.89 -5.9 21.3 88 -7.7 18.2
23:30 1014 29.94 843 24.89 -6.1 21.1 88 -7.8 17.9
23:35 1014 29.94 843 24.89 -6.2 20.8 87 -8 17.7
23:40 1014 29.94 843 24.89 -6.3 20.7 87 -8 17.5
23:45 1014 29.94 843 24.89 -6.3 20.7 85 -8.5 16.8
23:50 1014 29.94 843 24.89 -6.2 20.8 83 -8.6 16.5
23:55 1014 29.94 843 24.89 -6.3 20.7 83 -8.7 16.3
24:00 1014 29.94 843 24.89 -6.3 20.6 82 -9 15.9